sensor_id;sensor_type;location;lat;lon;timestamp;P1;durP1;ratioP1;P2;durP2;ratioP2
57231;SDS011;43488;46.934;8.276;2023-08-31T00:00:50;717.23;;;338.33;;
57231;SDS011;43488;46.934;8.276;2023-08-31T00:03:18;734.45;;;407.23;;
57231;SDS011;43488;46.934;8.276;2023-08-31T00:05:45;728.83;;;412.13;;
57231;SDS011;43488;46.934;8.276;2023-08-31T00:08:13;720.63;;;347.27;;
57231;SDS011;43488;46.934;8.276;2023-08-31T00:10:41;719.78;;;342.65;;
57231;SDS011;43488;46.934;8.276;2023-08-31T00:13:09;738.88;;;412.83;;
57231;SDS011;43488;46.934;8.276;2023-08-31T00:15:36;756.75;;;428.65;;
57231;SDS011;43488;46.934;8.276;2023-08-31T00:18:04;749.17;;;416.70;;
57231;SDS011;43488;46.934;8.276;2023-08-31T00:20:32;728.95;;;348.15;;
57231;SDS011;43488;46.934;8.276;2023-08-31T00:23:00;758.35;;;414.48;;
57231;SDS011;43488;46.934;8.276;2023-08-31T00:25:28;745.88;;;414.73;;
57231;SDS011;43488;46.934;8.276;2023-08-31T00:27:56;729.53;;;345.85;;
57231;SDS011;43488;46.934;8.276;2023-08-31T00:30:24;733.28;;;350.30;;
57231;SDS011;43488;46.934;8.276;2023-08-31T00:32:55;736.25;;;341.15;;
57231;SDS011;43488;46.934;8.276;2023-08-31T00:35:26;752.70;;;416.58;;
57231;SDS011;43488;46.934;8.276;2023-08-31T00:37:54;753.75;;;414.95;;
57231;SDS011;43488;46.934;8.276;2023-08-31T00:40:26;727.20;;;341.02;;
57231;SDS011;43488;46.934;8.276;2023-08-31T00:42:54;747.20;;;411.98;;
57231;SDS011;43488;46.934;8.276;2023-08-31T00:45:21;728.38;;;337.00;;
57231;SDS011;43488;46.934;8.276;2023-08-31T00:47:49;743.05;;;412.42;;
57231;SDS011;43488;46.934;8.276;2023-08-31T00:50:16;726.95;;;335.25;;
57231;SDS011;43488;46.934;8.276;2023-08-31T00:52:45;694.40;;;340.50;;
57231;SDS011;43488;46.934;8.276;2023-08-31T00:55:14;699.78;;;411.83;;
57231;SDS011;43488;46.934;8.276;2023-08-31T00:57:44;687.03;;;341.67;;
57231;SDS011;43488;46.934;8.276;2023-08-31T01:00:12;689.85;;;412.73;;
57231;SDS011;43488;46.934;8.276;2023-08-31T01:02:48;644.83;;;331.17;;
57231;SDS011;43488;46.934;8.276;2023-08-31T01:05:33;656.60;;;343.23;;
57231;SDS011;43488;46.934;8.276;2023-08-31T01:11:29;657.78;;;409.40;;
57231;SDS011;43488;46.934;8.276;2023-08-31T01:14:09;652.53;;;342.40;;
57231;SDS011;43488;46.934;8.276;2023-08-31T01:16:47;652.53;;;400.60;;
57231;SDS011;43488;46.934;8.276;2023-08-31T01:19:23;644.60;;;335.45;;
57231;SDS011;43488;46.934;8.276;2023-08-31T01:25:06;678.58;;;343.45;;
57231;SDS011;43488;46.934;8.276;2023-08-31T01:27:35;694.00;;;414.23;;
57231;SDS011;43488;46.934;8.276;2023-08-31T01:30:04;687.88;;;349.05;;
57231;SDS011;43488;46.934;8.276;2023-08-31T01:32:32;687.85;;;352.98;;
57231;SDS011;43488;46.934;8.276;2023-08-31T01:35:01;685.13;;;402.60;;
57231;SDS011;43488;46.934;8.276;2023-08-31T01:40:31;682.55;;;334.17;;
57231;SDS011;43488;46.934;8.276;2023-08-31T01:43:03;653.22;;;406.67;;
57231;SDS011;43488;46.934;8.276;2023-08-31T01:45:32;674.40;;;340.55;;
57231;SDS011;43488;46.934;8.276;2023-08-31T01:48:02;679.50;;;424.15;;
57231;SDS011;43488;46.934;8.276;2023-08-31T01:50:29;669.05;;;338.48;;
57231;SDS011;43488;46.934;8.276;2023-08-31T01:52:57;669.17;;;407.83;;
57231;SDS011;43488;46.934;8.276;2023-08-31T01:55:24;663.33;;;330.15;;
57231;SDS011;43488;46.934;8.276;2023-08-31T01:57:55;674.22;;;425.27;;
57231;SDS011;43488;46.934;8.276;2023-08-31T02:00:22;677.40;;;407.85;;
57231;SDS011;43488;46.934;8.276;2023-08-31T02:02:50;672.35;;;344.20;;
57231;SDS011;43488;46.934;8.276;2023-08-31T02:05:17;681.80;;;404.88;;
57231;SDS011;43488;46.934;8.276;2023-08-31T02:07:44;671.90;;;403.25;;
57231;SDS011;43488;46.934;8.276;2023-08-31T02:10:12;675.97;;;409.08;;
57231;SDS011;43488;46.934;8.276;2023-08-31T02:12:44;664.05;;;339.85;;
57231;SDS011;43488;46.934;8.276;2023-08-31T02:15:11;674.95;;;407.65;;
57231;SDS011;43488;46.934;8.276;2023-08-31T02:17:38;671.85;;;401.45;;
57231;SDS011;43488;46.934;8.276;2023-08-31T02:20:08;676.50;;;408.65;;
57231;SDS011;43488;46.934;8.276;2023-08-31T02:22:36;669.65;;;408.08;;
57231;SDS011;43488;46.934;8.276;2023-08-31T02:27:41;671.45;;;406.63;;
57231;SDS011;43488;46.934;8.276;2023-08-31T02:30:09;679.65;;;417.00;;
57231;SDS011;43488;46.934;8.276;2023-08-31T02:32:40;665.45;;;406.83;;
57231;SDS011;43488;46.934;8.276;2023-08-31T02:35:07;660.92;;;407.48;;
57231;SDS011;43488;46.934;8.276;2023-08-31T02:37:34;660.63;;;419.08;;
57231;SDS011;43488;46.934;8.276;2023-08-31T02:40:04;658.60;;;412.25;;
57231;SDS011;43488;46.934;8.276;2023-08-31T02:42:33;658.70;;;342.05;;
57231;SDS011;43488;46.934;8.276;2023-08-31T02:45:00;658.00;;;400.40;;
57231;SDS011;43488;46.934;8.276;2023-08-31T02:47:27;663.65;;;427.60;;
57231;SDS011;43488;46.934;8.276;2023-08-31T02:49:57;663.35;;;339.27;;
57231;SDS011;43488;46.934;8.276;2023-08-31T02:52:26;670.17;;;425.17;;
57231;SDS011;43488;46.934;8.276;2023-08-31T02:54:54;666.67;;;400.20;;
57231;SDS011;43488;46.934;8.276;2023-08-31T02:57:21;664.08;;;335.10;;
57231;SDS011;43488;46.934;8.276;2023-08-31T02:59:50;667.83;;;338.00;;
57231;SDS011;43488;46.934;8.276;2023-08-31T03:02:18;665.90;;;340.52;;
57231;SDS011;43488;46.934;8.276;2023-08-31T03:04:45;664.80;;;338.10;;
57231;SDS011;43488;46.934;8.276;2023-08-31T03:07:13;662.47;;;342.00;;
57231;SDS011;43488;46.934;8.276;2023-08-31T03:09:41;665.08;;;340.58;;
57231;SDS011;43488;46.934;8.276;2023-08-31T03:12:09;664.22;;;342.02;;
57231;SDS011;43488;46.934;8.276;2023-08-31T03:14:36;664.15;;;332.35;;
57231;SDS011;43488;46.934;8.276;2023-08-31T03:17:03;664.50;;;341.65;;
57231;SDS011;43488;46.934;8.276;2023-08-31T03:19:31;670.72;;;413.17;;
57231;SDS011;43488;46.934;8.276;2023-08-31T03:21:58;666.25;;;416.13;;
57231;SDS011;43488;46.934;8.276;2023-08-31T03:24:26;663.53;;;335.38;;
57231;SDS011;43488;46.934;8.276;2023-08-31T03:26:53;664.95;;;339.50;;
57231;SDS011;43488;46.934;8.276;2023-08-31T03:29:20;662.42;;;334.80;;
57231;SDS011;43488;46.934;8.276;2023-08-31T03:31:47;665.75;;;407.00;;
57231;SDS011;43488;46.934;8.276;2023-08-31T03:34:15;656.85;;;326.02;;
57231;SDS011;43488;46.934;8.276;2023-08-31T03:36:42;659.15;;;337.98;;
57231;SDS011;43488;46.934;8.276;2023-08-31T03:39:09;659.65;;;335.52;;
57231;SDS011;43488;46.934;8.276;2023-08-31T03:41:37;661.90;;;342.60;;
57231;SDS011;43488;46.934;8.276;2023-08-31T03:44:10;660.67;;;399.45;;
57231;SDS011;43488;46.934;8.276;2023-08-31T03:46:38;658.53;;;343.20;;
57231;SDS011;43488;46.934;8.276;2023-08-31T03:49:05;661.95;;;408.17;;
57231;SDS011;43488;46.934;8.276;2023-08-31T03:51:32;657.97;;;404.00;;
57231;SDS011;43488;46.934;8.276;2023-08-31T03:53:59;661.25;;;412.48;;
57231;SDS011;43488;46.934;8.276;2023-08-31T03:56:27;660.30;;;403.40;;
57231;SDS011;43488;46.934;8.276;2023-08-31T03:58:54;665.17;;;403.38;;
57231;SDS011;43488;46.934;8.276;2023-08-31T04:01:21;654.92;;;334.52;;
57231;SDS011;43488;46.934;8.276;2023-08-31T04:03:49;661.50;;;344.63;;
57231;SDS011;43488;46.934;8.276;2023-08-31T04:06:17;656.22;;;342.13;;
57231;SDS011;43488;46.934;8.276;2023-08-31T04:08:44;665.17;;;420.48;;
57231;SDS011;43488;46.934;8.276;2023-08-31T04:11:12;663.78;;;409.52;;
57231;SDS011;43488;46.934;8.276;2023-08-31T04:13:39;662.95;;;419.23;;
57231;SDS011;43488;46.934;8.276;2023-08-31T04:16:07;654.88;;;422.60;;
57231;SDS011;43488;46.934;8.276;2023-08-31T04:18:35;650.63;;;409.23;;
57231;SDS011;43488;46.934;8.276;2023-08-31T04:21:02;649.72;;;334.45;;
57231;SDS011;43488;46.934;8.276;2023-08-31T04:23:30;648.58;;;328.83;;
57231;SDS011;43488;46.934;8.276;2023-08-31T04:25:58;653.20;;;422.38;;
57231;SDS011;43488;46.934;8.276;2023-08-31T04:28:25;653.53;;;340.42;;
57231;SDS011;43488;46.934;8.276;2023-08-31T04:30:53;653.65;;;342.40;;
57231;SDS011;43488;46.934;8.276;2023-08-31T04:33:21;655.17;;;337.70;;
57231;SDS011;43488;46.934;8.276;2023-08-31T04:35:48;655.65;;;412.65;;
57231;SDS011;43488;46.934;8.276;2023-08-31T04:38:16;640.42;;;398.80;;
57231;SDS011;43488;46.934;8.276;2023-08-31T04:40:44;631.55;;;330.58;;
57231;SDS011;43488;46.934;8.276;2023-08-31T04:43:11;629.05;;;329.50;;
57231;SDS011;43488;46.934;8.276;2023-08-31T04:45:38;638.92;;;327.13;;
57231;SDS011;43488;46.934;8.276;2023-08-31T04:48:05;648.00;;;332.83;;
57231;SDS011;43488;46.934;8.276;2023-08-31T04:50:34;648.05;;;414.55;;
57231;SDS011;43488;46.934;8.276;2023-08-31T04:53:02;658.47;;;422.95;;
57231;SDS011;43488;46.934;8.276;2023-08-31T04:55:31;651.45;;;335.33;;
57231;SDS011;43488;46.934;8.276;2023-08-31T04:58:02;650.83;;;401.63;;
57231;SDS011;43488;46.934;8.276;2023-08-31T05:00:30;657.60;;;405.63;;
57231;SDS011;43488;46.934;8.276;2023-08-31T05:02:58;656.13;;;334.35;;
57231;SDS011;43488;46.934;8.276;2023-08-31T05:05:27;658.63;;;338.30;;
57231;SDS011;43488;46.934;8.276;2023-08-31T05:07:54;659.47;;;401.67;;
57231;SDS011;43488;46.934;8.276;2023-08-31T05:10:22;661.10;;;340.40;;
57231;SDS011;43488;46.934;8.276;2023-08-31T05:12:49;664.55;;;407.52;;
57231;SDS011;43488;46.934;8.276;2023-08-31T05:15:19;662.10;;;404.20;;
57231;SDS011;43488;46.934;8.276;2023-08-31T05:17:46;656.72;;;395.27;;
57231;SDS011;43488;46.934;8.276;2023-08-31T05:20:15;659.50;;;414.55;;
57231;SDS011;43488;46.934;8.276;2023-08-31T05:22:42;662.08;;;336.70;;
57231;SDS011;43488;46.934;8.276;2023-08-31T05:25:10;660.25;;;332.55;;
57231;SDS011;43488;46.934;8.276;2023-08-31T05:27:37;657.58;;;331.20;;
57231;SDS011;43488;46.934;8.276;2023-08-31T05:30:04;661.95;;;344.13;;
57231;SDS011;43488;46.934;8.276;2023-08-31T05:32:33;658.95;;;328.95;;
57231;SDS011;43488;46.934;8.276;2023-08-31T05:35:00;661.53;;;340.55;;
57231;SDS011;43488;46.934;8.276;2023-08-31T05:37:33;655.42;;;333.25;;
57231;SDS011;43488;46.934;8.276;2023-08-31T05:40:03;666.08;;;409.02;;
57231;SDS011;43488;46.934;8.276;2023-08-31T05:42:37;663.38;;;334.70;;
57231;SDS011;43488;46.934;8.276;2023-08-31T05:45:04;665.00;;;346.42;;
57231;SDS011;43488;46.934;8.276;2023-08-31T05:47:32;665.88;;;345.25;;
57231;SDS011;43488;46.934;8.276;2023-08-31T05:50:01;660.63;;;345.60;;
57231;SDS011;43488;46.934;8.276;2023-08-31T05:52:29;669.45;;;406.17;;
57231;SDS011;43488;46.934;8.276;2023-08-31T05:54:56;667.17;;;409.70;;
57231;SDS011;43488;46.934;8.276;2023-08-31T05:57:25;665.45;;;405.70;;
57231;SDS011;43488;46.934;8.276;2023-08-31T05:59:54;663.75;;;407.48;;
57231;SDS011;43488;46.934;8.276;2023-08-31T06:02:21;665.42;;;335.27;;
57231;SDS011;43488;46.934;8.276;2023-08-31T06:04:48;667.95;;;405.73;;
57231;SDS011;43488;46.934;8.276;2023-08-31T06:07:16;670.97;;;339.17;;
57231;SDS011;43488;46.934;8.276;2023-08-31T06:09:44;662.08;;;400.05;;
57231;SDS011;43488;46.934;8.276;2023-08-31T06:12:12;666.55;;;402.27;;
57231;SDS011;43488;46.934;8.276;2023-08-31T06:14:39;664.70;;;336.63;;
57231;SDS011;43488;46.934;8.276;2023-08-31T06:17:07;662.38;;;333.08;;
57231;SDS011;43488;46.934;8.276;2023-08-31T06:19:35;664.90;;;403.70;;
57231;SDS011;43488;46.934;8.276;2023-08-31T06:22:04;667.63;;;336.67;;
57231;SDS011;43488;46.934;8.276;2023-08-31T06:24:32;674.22;;;409.80;;
57231;SDS011;43488;46.934;8.276;2023-08-31T06:26:59;672.17;;;407.88;;
57231;SDS011;43488;46.934;8.276;2023-08-31T06:29:27;668.88;;;340.52;;
57231;SDS011;43488;46.934;8.276;2023-08-31T06:31:57;666.67;;;336.98;;
57231;SDS011;43488;46.934;8.276;2023-08-31T06:34:24;663.88;;;406.00;;
57231;SDS011;43488;46.934;8.276;2023-08-31T06:36:51;669.20;;;406.65;;
57231;SDS011;43488;46.934;8.276;2023-08-31T06:39:19;671.90;;;414.75;;
57231;SDS011;43488;46.934;8.276;2023-08-31T06:41:46;664.40;;;332.70;;
57231;SDS011;43488;46.934;8.276;2023-08-31T06:44:14;666.50;;;340.98;;
57231;SDS011;43488;46.934;8.276;2023-08-31T06:46:41;667.92;;;342.00;;
57231;SDS011;43488;46.934;8.276;2023-08-31T06:49:13;671.28;;;410.80;;
57231;SDS011;43488;46.934;8.276;2023-08-31T06:51:42;668.08;;;336.27;;
57231;SDS011;43488;46.934;8.276;2023-08-31T06:54:19;673.58;;;406.15;;
57231;SDS011;43488;46.934;8.276;2023-08-31T06:56:46;676.15;;;410.42;;
57231;SDS011;43488;46.934;8.276;2023-08-31T06:59:19;677.00;;;343.80;;
57231;SDS011;43488;46.934;8.276;2023-08-31T07:01:46;674.92;;;403.52;;
57231;SDS011;43488;46.934;8.276;2023-08-31T07:04:16;675.15;;;340.63;;
57231;SDS011;43488;46.934;8.276;2023-08-31T07:06:50;692.65;;;345.65;;
57231;SDS011;43488;46.934;8.276;2023-08-31T07:09:17;685.10;;;343.02;;
57231;SDS011;43488;46.934;8.276;2023-08-31T07:11:45;693.05;;;342.15;;
57231;SDS011;43488;46.934;8.276;2023-08-31T07:14:12;704.38;;;415.55;;
57231;SDS011;43488;46.934;8.276;2023-08-31T07:16:40;697.95;;;343.27;;
57231;SDS011;43488;46.934;8.276;2023-08-31T07:19:08;702.20;;;419.80;;
57231;SDS011;43488;46.934;8.276;2023-08-31T07:21:36;695.20;;;339.35;;
57231;SDS011;43488;46.934;8.276;2023-08-31T07:24:04;694.60;;;342.30;;
57231;SDS011;43488;46.934;8.276;2023-08-31T07:26:32;691.33;;;345.52;;
57231;SDS011;43488;46.934;8.276;2023-08-31T07:29:01;695.00;;;418.05;;
57231;SDS011;43488;46.934;8.276;2023-08-31T07:31:31;686.58;;;338.38;;
57231;SDS011;43488;46.934;8.276;2023-08-31T07:34:01;690.78;;;345.98;;
57231;SDS011;43488;46.934;8.276;2023-08-31T07:36:32;702.42;;;419.10;;
57231;SDS011;43488;46.934;8.276;2023-08-31T07:39:00;692.25;;;349.25;;
57231;SDS011;43488;46.934;8.276;2023-08-31T07:41:27;700.75;;;345.23;;
57231;SDS011;43488;46.934;8.276;2023-08-31T07:43:54;698.90;;;346.13;;
57231;SDS011;43488;46.934;8.276;2023-08-31T07:46:22;699.70;;;344.92;;
57231;SDS011;43488;46.934;8.276;2023-08-31T07:48:49;712.38;;;421.50;;
57231;SDS011;43488;46.934;8.276;2023-08-31T07:51:17;702.50;;;343.25;;
57231;SDS011;43488;46.934;8.276;2023-08-31T07:53:49;707.63;;;415.10;;
57231;SDS011;43488;46.934;8.276;2023-08-31T07:56:19;708.92;;;421.38;;
57231;SDS011;43488;46.934;8.276;2023-08-31T07:58:47;705.78;;;422.90;;
57231;SDS011;43488;46.934;8.276;2023-08-31T08:01:14;708.22;;;416.77;;
57231;SDS011;43488;46.934;8.276;2023-08-31T08:03:43;703.92;;;415.80;;
57231;SDS011;43488;46.934;8.276;2023-08-31T08:06:10;692.58;;;344.95;;
57231;SDS011;43488;46.934;8.276;2023-08-31T08:08:37;711.55;;;428.77;;
57231;SDS011;43488;46.934;8.276;2023-08-31T08:11:05;710.45;;;419.15;;
57231;SDS011;43488;46.934;8.276;2023-08-31T08:13:32;710.13;;;421.98;;
57231;SDS011;43488;46.934;8.276;2023-08-31T08:15:59;713.15;;;420.52;;
57231;SDS011;43488;46.934;8.276;2023-08-31T08:18:29;718.00;;;425.13;;
57231;SDS011;43488;46.934;8.276;2023-08-31T08:20:57;709.88;;;342.38;;
57231;SDS011;43488;46.934;8.276;2023-08-31T08:23:25;709.80;;;349.38;;
57231;SDS011;43488;46.934;8.276;2023-08-31T08:25:53;717.78;;;423.42;;
57231;SDS011;43488;46.934;8.276;2023-08-31T08:28:20;712.45;;;356.35;;
57231;SDS011;43488;46.934;8.276;2023-08-31T08:30:48;706.85;;;345.13;;
57231;SDS011;43488;46.934;8.276;2023-08-31T08:33:16;704.70;;;347.25;;
57231;SDS011;43488;46.934;8.276;2023-08-31T08:35:43;724.08;;;427.88;;
57231;SDS011;43488;46.934;8.276;2023-08-31T08:38:11;715.17;;;355.58;;
57231;SDS011;43488;46.934;8.276;2023-08-31T08:40:39;720.38;;;408.40;;
57231;SDS011;43488;46.934;8.276;2023-08-31T08:43:07;722.95;;;413.17;;
57231;SDS011;43488;46.934;8.276;2023-08-31T08:45:36;718.80;;;420.05;;
57231;SDS011;43488;46.934;8.276;2023-08-31T08:48:08;715.28;;;359.35;;
57231;SDS011;43488;46.934;8.276;2023-08-31T08:50:36;706.42;;;343.50;;
57231;SDS011;43488;46.934;8.276;2023-08-31T08:53:04;706.55;;;347.15;;
57231;SDS011;43488;46.934;8.276;2023-08-31T08:55:32;724.75;;;429.25;;
57231;SDS011;43488;46.934;8.276;2023-08-31T08:58:00;714.53;;;353.63;;
57231;SDS011;43488;46.934;8.276;2023-08-31T09:00:27;714.60;;;350.38;;
57231;SDS011;43488;46.934;8.276;2023-08-31T09:02:55;722.85;;;416.92;;
57231;SDS011;43488;46.934;8.276;2023-08-31T09:05:29;712.10;;;347.92;;
57231;SDS011;43488;46.934;8.276;2023-08-31T09:08:08;727.42;;;418.00;;
57231;SDS011;43488;46.934;8.276;2023-08-31T09:10:40;720.60;;;351.83;;
57231;SDS011;43488;46.934;8.276;2023-08-31T09:13:11;712.33;;;347.20;;
57231;SDS011;43488;46.934;8.276;2023-08-31T09:15:48;721.20;;;351.25;;
57231;SDS011;43488;46.934;8.276;2023-08-31T09:18:25;707.80;;;358.63;;
57231;SDS011;43488;46.934;8.276;2023-08-31T09:20:55;713.90;;;355.05;;
57231;SDS011;43488;46.934;8.276;2023-08-31T09:23:23;712.17;;;354.83;;
57231;SDS011;43488;46.934;8.276;2023-08-31T09:25:52;710.25;;;351.77;;
57231;SDS011;43488;46.934;8.276;2023-08-31T09:28:21;711.92;;;355.65;;
57231;SDS011;43488;46.934;8.276;2023-08-31T09:30:53;706.83;;;346.08;;
57231;SDS011;43488;46.934;8.276;2023-08-31T09:33:34;721.70;;;426.08;;
57231;SDS011;43488;46.934;8.276;2023-08-31T09:36:03;697.33;;;357.55;;
57231;SDS011;43488;46.934;8.276;2023-08-31T09:38:45;695.83;;;357.98;;
57231;SDS011;43488;46.934;8.276;2023-08-31T09:41:13;701.38;;;416.92;;
57231;SDS011;43488;46.934;8.276;2023-08-31T09:43:44;706.70;;;423.42;;
57231;SDS011;43488;46.934;8.276;2023-08-31T09:46:11;684.80;;;356.38;;
57231;SDS011;43488;46.934;8.276;2023-08-31T09:48:41;679.40;;;366.83;;
57231;SDS011;43488;46.934;8.276;2023-08-31T09:51:12;678.47;;;360.38;;
57231;SDS011;43488;46.934;8.276;2023-08-31T09:53:49;669.47;;;360.40;;
57231;SDS011;43488;46.934;8.276;2023-08-31T09:56:24;673.22;;;365.73;;
57231;SDS011;43488;46.934;8.276;2023-08-31T09:58:55;627.58;;;348.05;;
57231;SDS011;43488;46.934;8.276;2023-08-31T10:01:23;626.55;;;351.85;;
57231;SDS011;43488;46.934;8.276;2023-08-31T10:03:53;630.88;;;346.88;;
57231;SDS011;43488;46.934;8.276;2023-08-31T10:06:22;628.47;;;414.80;;
57231;SDS011;43488;46.934;8.276;2023-08-31T10:08:50;628.58;;;344.02;;
57231;SDS011;43488;46.934;8.276;2023-08-31T10:11:18;637.88;;;344.48;;
57231;SDS011;43488;46.934;8.276;2023-08-31T10:13:46;630.92;;;347.02;;
57231;SDS011;43488;46.934;8.276;2023-08-31T10:16:15;631.33;;;408.33;;
57231;SDS011;43488;46.934;8.276;2023-08-31T10:18:49;637.28;;;353.67;;
57231;SDS011;43488;46.934;8.276;2023-08-31T10:23:49;633.78;;;417.08;;
57231;SDS011;43488;46.934;8.276;2023-08-31T10:26:26;638.38;;;353.00;;
57231;SDS011;43488;46.934;8.276;2023-08-31T10:28:57;639.72;;;430.42;;
57231;SDS011;43488;46.934;8.276;2023-08-31T10:31:28;667.40;;;356.40;;
57231;SDS011;43488;46.934;8.276;2023-08-31T10:36:35;676.22;;;423.52;;
57231;SDS011;43488;46.934;8.276;2023-08-31T10:39:14;667.35;;;427.40;;
57231;SDS011;43488;46.934;8.276;2023-08-31T10:41:53;655.30;;;356.98;;
57231;SDS011;43488;46.934;8.276;2023-08-31T10:44:31;658.25;;;433.15;;
57231;SDS011;43488;46.934;8.276;2023-08-31T10:46:59;649.65;;;356.70;;
57231;SDS011;43488;46.934;8.276;2023-08-31T10:49:30;657.47;;;368.40;;
57231;SDS011;43488;46.934;8.276;2023-08-31T10:52:18;657.15;;;363.30;;
57231;SDS011;43488;46.934;8.276;2023-08-31T10:54:49;653.50;;;428.38;;
57231;SDS011;43488;46.934;8.276;2023-08-31T10:57:31;641.50;;;357.08;;
57231;SDS011;43488;46.934;8.276;2023-08-31T11:00:04;640.35;;;427.25;;
57231;SDS011;43488;46.934;8.276;2023-08-31T11:02:35;647.45;;;354.63;;
57231;SDS011;43488;46.934;8.276;2023-08-31T11:05:11;613.40;;;424.83;;
57231;SDS011;43488;46.934;8.276;2023-08-31T11:07:46;604.08;;;416.55;;
57231;SDS011;43488;46.934;8.276;2023-08-31T11:10:15;607.47;;;421.38;;
57231;SDS011;43488;46.934;8.276;2023-08-31T11:12:49;612.03;;;422.67;;
57231;SDS011;43488;46.934;8.276;2023-08-31T11:15:21;650.08;;;360.73;;
57231;SDS011;43488;46.934;8.276;2023-08-31T11:17:53;669.10;;;432.85;;
57231;SDS011;43488;46.934;8.276;2023-08-31T11:20:23;668.63;;;369.85;;
57231;SDS011;43488;46.934;8.276;2023-08-31T11:22:54;677.80;;;370.83;;
57231;SDS011;43488;46.934;8.276;2023-08-31T11:25:22;677.72;;;432.67;;
57231;SDS011;43488;46.934;8.276;2023-08-31T11:27:53;689.08;;;442.35;;
57231;SDS011;43488;46.934;8.276;2023-08-31T11:30:21;684.75;;;446.83;;
57231;SDS011;43488;46.934;8.276;2023-08-31T11:32:49;668.03;;;358.92;;
57231;SDS011;43488;46.934;8.276;2023-08-31T11:35:19;672.17;;;370.23;;
57231;SDS011;43488;46.934;8.276;2023-08-31T11:37:55;690.20;;;428.17;;
57231;SDS011;43488;46.934;8.276;2023-08-31T11:40:25;678.05;;;375.40;;
57231;SDS011;43488;46.934;8.276;2023-08-31T11:42:54;670.75;;;365.80;;
57231;SDS011;43488;46.934;8.276;2023-08-31T11:45:21;689.67;;;430.35;;
57231;SDS011;43488;46.934;8.276;2023-08-31T11:47:50;627.20;;;433.58;;
57231;SDS011;43488;46.934;8.276;2023-08-31T11:50:18;609.58;;;420.95;;
57231;SDS011;43488;46.934;8.276;2023-08-31T11:52:48;626.45;;;367.77;;
57231;SDS011;43488;46.934;8.276;2023-08-31T11:55:17;605.22;;;427.02;;
57231;SDS011;43488;46.934;8.276;2023-08-31T11:57:52;603.35;;;419.48;;
57231;SDS011;43488;46.934;8.276;2023-08-31T12:00:21;619.00;;;372.05;;
57231;SDS011;43488;46.934;8.276;2023-08-31T12:02:59;604.20;;;413.88;;
57231;SDS011;43488;46.934;8.276;2023-08-31T12:05:43;621.28;;;369.30;;
57231;SDS011;43488;46.934;8.276;2023-08-31T12:08:15;614.97;;;368.83;;
57231;SDS011;43488;46.934;8.276;2023-08-31T12:10:42;614.50;;;425.50;;
57231;SDS011;43488;46.934;8.276;2023-08-31T12:13:11;614.42;;;361.50;;
57231;SDS011;43488;46.934;8.276;2023-08-31T12:15:42;618.10;;;421.83;;
57231;SDS011;43488;46.934;8.276;2023-08-31T12:18:13;614.67;;;362.10;;
57231;SDS011;43488;46.934;8.276;2023-08-31T12:23:17;608.05;;;420.15;;
57231;SDS011;43488;46.934;8.276;2023-08-31T12:25:48;606.13;;;421.43;;
57231;SDS011;43488;46.934;8.276;2023-08-31T12:28:20;614.70;;;423.40;;
57231;SDS011;43488;46.934;8.276;2023-08-31T12:30:49;611.33;;;357.67;;
57231;SDS011;43488;46.934;8.276;2023-08-31T12:33:19;612.03;;;423.35;;
57231;SDS011;43488;46.934;8.276;2023-08-31T12:35:48;616.97;;;359.98;;
57231;SDS011;43488;46.934;8.276;2023-08-31T12:38:16;617.85;;;420.13;;
57231;SDS011;43488;46.934;8.276;2023-08-31T12:40:44;613.75;;;362.42;;
57231;SDS011;43488;46.934;8.276;2023-08-31T12:43:14;608.03;;;418.25;;
57231;SDS011;43488;46.934;8.276;2023-08-31T12:45:44;618.35;;;363.98;;
57231;SDS011;43488;46.934;8.276;2023-08-31T12:48:12;619.10;;;366.75;;
57231;SDS011;43488;46.934;8.276;2023-08-31T12:50:41;618.50;;;365.70;;
57231;SDS011;43488;46.934;8.276;2023-08-31T12:53:21;611.65;;;355.15;;
57231;SDS011;43488;46.934;8.276;2023-08-31T12:55:51;616.60;;;360.80;;
57231;SDS011;43488;46.934;8.276;2023-08-31T12:58:20;607.72;;;425.83;;
57231;SDS011;43488;46.934;8.276;2023-08-31T13:00:50;610.53;;;355.27;;
57231;SDS011;43488;46.934;8.276;2023-08-31T13:03:19;615.92;;;356.20;;
57231;SDS011;43488;46.934;8.276;2023-08-31T13:05:46;614.17;;;359.67;;
57231;SDS011;43488;46.934;8.276;2023-08-31T13:08:14;619.20;;;361.10;;
57231;SDS011;43488;46.934;8.276;2023-08-31T13:10:41;609.58;;;429.23;;
57231;SDS011;43488;46.934;8.276;2023-08-31T13:13:09;607.28;;;423.13;;
57231;SDS011;43488;46.934;8.276;2023-08-31T13:15:39;617.33;;;364.27;;
57231;SDS011;43488;46.934;8.276;2023-08-31T13:18:07;620.35;;;367.52;;
57231;SDS011;43488;46.934;8.276;2023-08-31T13:20:35;608.80;;;427.17;;
57231;SDS011;43488;46.934;8.276;2023-08-31T13:23:05;607.22;;;425.60;;
57231;SDS011;43488;46.934;8.276;2023-08-31T13:25:33;616.78;;;420.95;;
57231;SDS011;43488;46.934;8.276;2023-08-31T13:28:02;616.13;;;365.20;;
57231;SDS011;43488;46.934;8.276;2023-08-31T13:30:30;615.83;;;365.52;;
57231;SDS011;43488;46.934;8.276;2023-08-31T13:32:57;618.03;;;364.23;;
57231;SDS011;43488;46.934;8.276;2023-08-31T13:35:25;623.22;;;374.27;;
57231;SDS011;43488;46.934;8.276;2023-08-31T13:37:52;615.67;;;419.83;;
57231;SDS011;43488;46.934;8.276;2023-08-31T13:40:19;618.03;;;368.45;;
57231;SDS011;43488;46.934;8.276;2023-08-31T13:42:57;622.05;;;360.05;;
57231;SDS011;43488;46.934;8.276;2023-08-31T13:45:29;623.60;;;369.40;;
57231;SDS011;43488;46.934;8.276;2023-08-31T13:47:58;616.95;;;356.92;;
57231;SDS011;43488;46.934;8.276;2023-08-31T13:50:30;618.22;;;420.95;;
57231;SDS011;43488;46.934;8.276;2023-08-31T13:52:57;617.00;;;426.23;;
57231;SDS011;43488;46.934;8.276;2023-08-31T13:55:25;615.70;;;426.10;;
57231;SDS011;43488;46.934;8.276;2023-08-31T13:57:53;617.00;;;435.27;;
57231;SDS011;43488;46.934;8.276;2023-08-31T14:00:20;613.17;;;413.35;;
57231;SDS011;43488;46.934;8.276;2023-08-31T14:02:53;619.80;;;357.77;;
57231;SDS011;43488;46.934;8.276;2023-08-31T14:05:20;614.83;;;431.60;;
57231;SDS011;43488;46.934;8.276;2023-08-31T14:07:53;614.78;;;354.98;;
57231;SDS011;43488;46.934;8.276;2023-08-31T14:10:20;614.85;;;357.92;;
57231;SDS011;43488;46.934;8.276;2023-08-31T14:12:47;609.25;;;419.00;;
57231;SDS011;43488;46.934;8.276;2023-08-31T14:15:15;611.97;;;350.90;;
57231;SDS011;43488;46.934;8.276;2023-08-31T14:17:46;613.63;;;424.17;;
57231;SDS011;43488;46.934;8.276;2023-08-31T14:20:16;611.53;;;427.45;;
57231;SDS011;43488;46.934;8.276;2023-08-31T14:22:43;617.63;;;412.27;;
57231;SDS011;43488;46.934;8.276;2023-08-31T14:25:12;613.58;;;352.00;;
57231;SDS011;43488;46.934;8.276;2023-08-31T14:27:41;613.13;;;420.40;;